»·PEaware :: UAL8 LLBG-KIAD

UAL8 :: LLBG-KIAD

FLIGHT INFORMATION

Flight Status: Arrived
Operator:
United Airlines
More flights by this operator :: More flights under this callsign
Pilot: Scott L. (17677)
Aircraft: Unknown
(A359)
More flights by this aircraft type
Origin: LLBG Ben Gurion
Israel
Destination: KIAD Washington Dulles Intl
United States
More flights between these airports :: More routes between these airports
Route: SUVAS BANRO UN128 LMO EVIVI/K0893F360 L863 OKANA/N0483F360 BABIT SASAL DEXIT MAPOX/N0485F380 MIMVA L602 NALAX L46 REMSI LUTOV/M084F380 PIKIL/M084F390 NATA 54N050W/N0486F390 NATA NEEKO/N0490F400 N480A TAFFY ENE BAF HYPER7
File this flight plan on PilotEdge
Remarks: RMK / SIMBRIEF
Altitude:
(Current/Filed)
36,000ft
Speed:
(Current/Filed)
489kts
Departed: 10-Dec-20 10:42 AM
Arrived: 10-Dec-20 05:49 PM
Distance/Time
Traveled:
5116nm/7:07
Distance/Time
To Go:
Arrived

Flight Plot

Page will automatically refresh every two minutes.

Flight plan parsing failed; only flown route is shown


Map Options




Map Legend


Flown Route
Filed Route
Departure Airport
Arrival Airport
Navaid (VOR, NDB)
Fix

Horizontal Profiles

Position Reports

Time Latitude Longitude Heading Altitude Ground
Speed
10-Dec-20 10:40 32.391262 33.706819 307 22337ft 429kts
10-Dec-20 10:41 32.473645 33.600752 307 23939ft 435kts
10-Dec-20 10:42 32.556409 33.493859 306 25418ft 440kts
10-Dec-20 10:43 32.639295 33.386470 306 26763ft 445kts
10-Dec-20 10:44 32.723128 33.277233 305 28084ft 450kts
10-Dec-20 10:45 32.806997 33.167806 305 29841ft 442kts
10-Dec-20 10:46 32.888776 33.060946 304 31543ft 431kts
10-Dec-20 10:47 32.968737 32.956128 304 32965ft 424kts
10-Dec-20 10:48 33.048259 32.851412 304 33817ft 427kts
10-Dec-20 10:49 33.128170 32.746186 305 34537ft 430kts
10-Dec-20 10:50 33.208825 32.640182 305 35304ft 430kts
10-Dec-20 10:51 33.288686 32.534413 305 36016ft 429kts
10-Dec-20 10:52 33.368593 32.428137 305 36158ft 429kts
10-Dec-20 10:53 33.447993 32.322102 304 36160ft 428kts
10-Dec-20 10:54 33.527240 32.215700 304 36159ft 428kts
10-Dec-20 10:55 33.606658 32.109027 304 36159ft 428kts
10-Dec-20 10:56 33.686097 32.002081 305 36159ft 428kts
10-Dec-20 10:57 33.765422 31.894958 305 36159ft 428kts
10-Dec-20 10:58 33.844489 31.787884 304 36159ft 429kts
10-Dec-20 10:59 33.923840 31.680077 304 36159ft 428kts
10-Dec-20 11:00 34.002822 31.572448 305 36159ft 427kts
10-Dec-20 11:01 34.081598 31.464800 304 36159ft 428kts
10-Dec-20 11:02 34.160794 31.356798 305 36159ft 428kts
10-Dec-20 11:03 34.239581 31.248382 304 36159ft 428kts
10-Dec-20 11:04 34.317922 31.140254 304 36160ft 427kts
10-Dec-20 11:05 34.397177 31.030619 303 36159ft 427kts
10-Dec-20 11:06 34.475314 30.922152 303 36159ft 426kts
10-Dec-20 11:07 34.543826 30.826734 303 36158ft 426kts
10-Dec-20 11:08 34.627488 30.709886 303 36159ft 426kts
10-Dec-20 11:09 34.702891 30.604270 303 36159ft 426kts
10-Dec-20 11:10 34.764786 30.517302 303 36159ft 427kts
10-Dec-20 11:11 34.852951 30.393099 303 36157ft 426kts
10-Dec-20 11:12 34.929867 30.284183 302 36138ft 426kts
10-Dec-20 11:13 35.006794 30.174953 301 36125ft 425kts
10-Dec-20 11:14 35.083633 30.065552 301 36132ft 424kts
10-Dec-20 11:15 35.145775 29.977346 301 36134ft 425kts
10-Dec-20 11:16 35.229291 29.858236 301 36109ft 424kts
10-Dec-20 11:17 35.306173 29.747944 301 36072ft 424kts
10-Dec-20 11:18 35.383133 29.637098 301 36053ft 425kts
10-Dec-20 11:19 35.459634 29.526569 301 36051ft 423kts
10-Dec-20 11:20 35.536194 29.415577 301 36054ft 425kts
10-Dec-20 11:21 35.677166 29.209890 300 36051ft 425kts
10-Dec-20 11:22 35.828415 28.988207 300 36049ft 424kts
10-Dec-20 11:23 35.980988 28.763164 300 36048ft 426kts
10-Dec-20 11:24 36.133095 28.537533 300 36027ft 427kts
10-Dec-20 11:25 36.284900 28.311263 299 36008ft 426kts
10-Dec-20 11:26 36.436355 28.083558 301 35994ft 428kts
10-Dec-20 11:27 36.641543 27.914247 329 35998ft 472kts
10-Dec-20 11:28 36.874535 27.777138 319 36000ft 458kts
10-Dec-20 11:29 37.100172 27.624765 321 36012ft 461kts
10-Dec-20 11:30 37.327466 27.472832 321 36023ft 461kts
10-Dec-20 11:31 37.551827 27.320850 321 36023ft 460kts
10-Dec-20 11:32 37.779359 27.165336 321 36002ft 462kts
10-Dec-20 11:33 38.003433 27.011500 321 35993ft 466kts
10-Dec-20 11:34 38.003433 27.011500 321 35993ft 466kts
10-Dec-20 11:35 38.124007 26.928338 321 35992ft 473kts
10-Dec-20 11:36 38.357105 26.767282 322 35999ft 478kts
10-Dec-20 11:37 38.591422 26.603552 322 36019ft 477kts
10-Dec-20 11:38 38.824238 26.438011 318 35967ft 473kts
10-Dec-20 11:39 39.024062 26.228843 314 35936ft 472kts
10-Dec-20 11:40 39.226855 26.013514 316 35944ft 488kts
10-Dec-20 11:41 39.428017 25.792284 314 35904ft 499kts
10-Dec-20 11:42 39.533152 25.673843 315 35828ft 500kts
10-Dec-20 11:43 39.713391 25.470801 315 35809ft 500kts
10-Dec-20 11:44 39.922906 25.232747 314 35803ft 499kts
10-Dec-20 11:45 40.129252 24.990865 314 35806ft 494kts
10-Dec-20 11:46 40.437678 24.627194 314 35800ft 492kts
10-Dec-20 11:47 40.841775 24.141787 314 35785ft 491kts
10-Dec-20 11:48 41.246502 23.648572 314 35769ft 502kts
10-Dec-20 11:49 41.721563 23.248299 333 35813ft 510kts
10-Dec-20 11:50 42.214209 22.920265 332 35824ft 511kts
10-Dec-20 11:51 42.719196 22.579721 331 35829ft 506kts
10-Dec-20 11:52 43.173686 22.133222 319 35843ft 511kts
10-Dec-20 11:53 43.627031 21.637058 319 35864ft 527kts
10-Dec-20 11:54 44.084995 21.120913 318 35861ft 528kts
10-Dec-20 11:55 44.523088 20.618456 318 35868ft 497kts
10-Dec-20 11:56 44.948169 20.119680 317 35884ft 498kts
10-Dec-20 11:57 45.379123 19.605266 316 35908ft 513kts
10-Dec-20 11:58 45.808936 19.079691 316 35918ft 512kts
10-Dec-20 11:59 46.165543 18.516535 307 35914ft 488kts
10-Dec-20 12:00 46.509480 17.906544 307 35906ft 487kts
10-Dec-20 12:01 46.688769 17.581694 307 35891ft 488kts
10-Dec-20 12:02 46.761957 17.448015 307 35888ft 488kts
10-Dec-20 12:03 46.846654 17.292349 306 35888ft 488kts
10-Dec-20 12:04 46.930898 17.136394 306 35888ft 488kts
10-Dec-20 12:05 47.015029 16.980053 307 35885ft 489kts
10-Dec-20 12:07 47.098824 16.823507 309 35889ft 484kts
10-Dec-20 12:08 47.181589 16.669212 309 35888ft 479kts
10-Dec-20 12:09 47.263363 16.514867 309 35885ft 479kts
10-Dec-20 12:10 47.347317 16.362018 311 35869ft 479kts
10-Dec-20 12:11 47.432176 16.210194 310 35862ft 479kts
10-Dec-20 12:12 47.516925 16.057492 310 35861ft 479kts
10-Dec-20 12:13 47.601546 15.904260 310 35891ft 479kts
10-Dec-20 12:14 47.685761 15.750863 310 35957ft 479kts
10-Dec-20 12:15 47.769801 15.596919 310 35955ft 479kts
10-Dec-20 12:16 47.853653 15.442457 310 35950ft 479kts
10-Dec-20 12:17 47.937535 15.286829 309 35937ft 479kts
10-Dec-20 12:18 48.020716 15.131467 309 36000ft 479kts
10-Dec-20 12:19 48.103951 14.975322 310 35957ft 477kts
10-Dec-20 12:20 48.186521 14.820609 311 35881ft 474kts
10-Dec-20 12:21 48.269077 14.664374 311 35863ft 475kts
10-Dec-20 12:22 48.350699 14.508760 311 35863ft 475kts
10-Dec-20 12:23 48.432056 14.352700 311 35862ft 475kts
10-Dec-20 12:23 48.499711 14.221859 310 35859ft 475kts
10-Dec-20 12:25 48.594261 14.038372 310 35861ft 475kts
10-Dec-20 12:25 48.661912 13.906480 310 35860ft 475kts
10-Dec-20 12:26 48.742382 13.748784 310 35861ft 475kts
10-Dec-20 12:27 48.824597 13.591100 311 35856ft 474kts
10-Dec-20 12:28 48.907153 13.434640 311 35842ft 474kts
10-Dec-20 12:29 48.989256 13.277629 310 35833ft 475kts
10-Dec-20 12:30 49.071016 13.120270 309 35832ft 472kts
10-Dec-20 12:31 49.152249 12.963895 309 35833ft 470kts
10-Dec-20 12:32 49.233685 12.805886 309 35831ft 469kts
10-Dec-20 12:33 49.314242 12.648360 309 35833ft 470kts
10-Dec-20 12:34 49.394521 12.490399 309 35834ft 469kts
10-Dec-20 12:35 49.474984 12.331121 308 35823ft 470kts
10-Dec-20 12:36 49.554639 12.171986 308 35818ft 469kts
10-Dec-20 12:37 49.634381 12.012138 308 35818ft 469kts
10-Dec-20 12:38 49.714073 11.851507 308 35817ft 469kts
10-Dec-20 12:39 49.793411 11.690636 308 35818ft 469kts
10-Dec-20 12:40 49.872464 11.529359 308 35819ft 470kts
10-Dec-20 12:41 49.951485 11.367165 308 35826ft 470kts
10-Dec-20 12:42 50.029791 11.204980 307 35834ft 469kts
10-Dec-20 12:43 50.108304 11.041707 307 35841ft 469kts
10-Dec-20 12:44 50.185862 10.880263 309 35857ft 456kts
10-Dec-20 12:45 50.260103 10.724350 309 35842ft 443kts
10-Dec-20 12:46 50.333567 10.569107 309 35842ft 444kts
10-Dec-20 12:47 50.406720 10.413418 309 35839ft 443kts
10-Dec-20 12:48 50.478477 10.259452 308 35834ft 444kts
10-Dec-20 12:49 50.551371 10.102217 308 35836ft 444kts
10-Dec-20 12:50 50.623889 9.945045 309 35832ft 444kts
10-Dec-20 12:51 50.696058 9.787766 309 35832ft 444kts
10-Dec-20 12:52 50.767937 9.630119 308 35831ft 444kts
10-Dec-20 12:54 50.852337 9.443849 308 35834ft 444kts
10-Dec-20 12:54 50.912023 9.311243 307 35832ft 445kts
10-Dec-20 12:55 50.983730 9.150836 307 35831ft 447kts
10-Dec-20 12:56 51.055430 8.989691 307 35833ft 444kts
10-Dec-20 12:57 51.123413 8.836375 308 35834ft 437kts
10-Dec-20 12:58 51.189481 8.672780 305 35820ft 438kts
10-Dec-20 12:59 51.254326 8.507986 305 35808ft 438kts
10-Dec-20 13:00 51.319360 8.341734 304 35804ft 439kts
10-Dec-20 13:01 51.382794 8.178025 304 35805ft 438kts
10-Dec-20 13:02 51.447119 8.011348 304 35805ft 438kts
10-Dec-20 13:03 51.511003 7.844863 304 35806ft 438kts
10-Dec-20 13:04 51.575011 7.676974 304 35805ft 439kts
10-Dec-20 13:05 51.638412 7.509593 304 35806ft 438kts
10-Dec-20 13:06 51.702073 7.340405 304 35804ft 438kts
10-Dec-20 13:07 51.765212 7.171011 303 35804ft 439kts
10-Dec-20 13:08 51.828499 7.000915 301 35804ft 447kts
10-Dec-20 13:09 51.891977 6.828473 301 35806ft 452kts
10-Dec-20 13:10 51.957311 6.649924 301 35806ft 452kts
10-Dec-20 13:11 52.021201 6.474225 301 35806ft 452kts
10-Dec-20 13:12 52.084898 6.297750 300 35806ft 452kts
10-Dec-20 13:13 52.148568 6.120911 300 35806ft 452kts
10-Dec-20 13:14 52.210186 5.948380 300 35806ft 452kts
10-Dec-20 13:15 52.270547 5.777694 301 35800ft 438kts
10-Dec-20 13:16 52.331055 5.605583 301 35787ft 438kts
10-Dec-20 13:17 52.390994 5.433838 301 35778ft 438kts
10-Dec-20 13:18 52.451096 5.260134 300 35778ft 438kts
10-Dec-20 13:19 52.511198 5.085184 300 35768ft 438kts
10-Dec-20 13:20 52.571305 4.909397 300 35754ft 438kts
10-Dec-20 13:21 52.630674 4.734439 299 35750ft 437kts
10-Dec-20 13:22 52.689638 4.559331 299 35751ft 437kts
10-Dec-20 13:23 52.748709 4.382719 299 35751ft 437kts
10-Dec-20 13:24 52.806507 4.208355 298 35750ft 437kts
10-Dec-20 13:25 52.864899 4.031159 298 35751ft 437kts
10-Dec-20 13:26 52.922648 3.854887 298 35751ft 438kts
10-Dec-20 13:27 52.980653 3.676523 298 35751ft 437kts
10-Dec-20 13:28 53.038608 3.497155 299 35751ft 439kts
10-Dec-20 13:29 53.091147 3.317454 292 35751ft 441kts
10-Dec-20 13:30 53.125016 3.119367 284 35753ft 444kts
10-Dec-20 13:31 53.152131 2.915774 282 35702ft 449kts
10-Dec-20 13:32 53.178318 2.713264 281 35633ft 454kts
10-Dec-20 13:33 53.205315 2.502053 281 35615ft 454kts
10-Dec-20 13:34 53.230305 2.303778 280 35614ft 454kts
10-Dec-20 13:35 53.256114 2.095550 281 35613ft 454kts
10-Dec-20 13:36 53.280958 1.892380 281 35614ft 454kts
10-Dec-20 13:37 53.318597 1.578630 281 35614ft 454kts
10-Dec-20 13:38 53.376036 1.169044 282 35614ft 454kts
10-Dec-20 13:39 53.434475 0.756076 281 35610ft 463kts
10-Dec-20 13:40 53.492487 0.333829 280 35579ft 463kts
10-Dec-20 13:41 53.549098 -0.091360 280 35547ft 463kts
10-Dec-20 13:42 53.604645 -0.519497 280 35531ft 463kts
10-Dec-20 13:43 53.631637 -0.732443 279 35530ft 463kts
10-Dec-20 13:44 53.658250 -0.945961 279 35529ft 463kts
10-Dec-20 13:45 53.684396 -1.159148 278 35523ft 459kts
10-Dec-20 13:46 53.709863 -1.370173 278 35490ft 457kts
10-Dec-20 13:47 53.735029 -1.581994 278 35455ft 457kts
10-Dec-20 13:48 53.758162 -1.794286 277 35445ft 456kts
10-Dec-20 13:49 53.780824 -2.006134 277 35447ft 457kts
10-Dec-20 13:50 53.803218 -2.218394 277 35447ft 457kts
10-Dec-20 13:51 53.825216 -2.430541 277 35446ft 457kts
10-Dec-20 13:52 53.846910 -2.643636 277 35419ft 457kts
10-Dec-20 13:53 53.867871 -2.853617 276 35394ft 457kts
10-Dec-20 13:54 53.888701 -3.065667 276 35391ft 454kts
10-Dec-20 13:55 53.939818 -3.604059 276 35395ft 453kts
10-Dec-20 13:56 54.101969 -4.422321 288 35316ft 460kts
10-Dec-20 13:57 54.288451 -5.240904 287 35285ft 463kts
10-Dec-20 13:59 54.470720 -6.069064 287 35224ft 462kts
10-Dec-20 14:00 54.647063 -6.903974 286 35198ft 462kts
10-Dec-20 14:01 54.813025 -7.722557 286 35156ft 457kts
10-Dec-20 14:02 54.977647 -8.570014 285 35140ft 462kts
10-Dec-20 14:03 55.137187 -9.427966 284 35138ft 461kts
10-Dec-20 14:04 55.290566 -10.292907 283 35167ft 461kts
10-Dec-20 14:05 55.436583 -11.160580 284 35190ft 458kts
10-Dec-20 14:06 55.577273 -12.036610 283 35194ft 458kts
10-Dec-20 14:07 55.674833 -12.672872 282 35193ft 458kts
10-Dec-20 14:08 55.689450 -12.770583 282 35193ft 458kts
10-Dec-20 14:09 55.703444 -12.864699 282 35193ft 458kts
10-Dec-20 14:10 55.716730 -12.954491 282 35193ft 458kts
10-Dec-20 14:11 55.730266 -13.046516 282 35194ft 458kts
10-Dec-20 14:12 55.758650 -13.241861 283 35194ft 455kts
10-Dec-20 14:13 55.878341 -14.088894 282 35195ft 452kts
10-Dec-20 14:14 55.999816 -14.996703 283 35197ft 452kts
10-Dec-20 14:15 56.173021 -15.775803 289 35197ft 453kts
10-Dec-20 14:16 56.338531 -16.555770 289 35194ft 453kts
10-Dec-20 14:16 56.458839 -17.139739 289 35195ft 454kts
10-Dec-20 14:18 56.718800 -18.460685 288 34999ft 453kts
10-Dec-20 14:18 56.947906 -19.705588 287 34952ft 454kts
10-Dec-20 14:20 57.044728 -21.296884 273 34941ft 457kts
10-Dec-20 14:20 57.065162 -22.085399 272 34943ft 458kts
10-Dec-20 14:22 57.086274 -23.192016 270 34943ft 452kts
10-Dec-20 14:22 57.094822 -23.970234 269 34941ft 451kts
10-Dec-20 14:23 57.099051 -24.909818 269 34939ft 451kts
10-Dec-20 14:24 57.096358 -25.831808 268 34943ft 443kts
10-Dec-20 14:25 57.086923 -26.750663 267 34943ft 443kts
10-Dec-20 14:26 57.071018 -27.660238 266 34944ft 437kts
10-Dec-20 14:27 57.048831 -28.557408 267 34943ft 437kts
10-Dec-20 14:28 57.020403 -29.450509 266 34945ft 432kts
10-Dec-20 14:29 56.980505 -30.338291 263 34940ft 430kts
10-Dec-20 14:30 56.923298 -31.214538 263 35184ft 428kts
10-Dec-20 14:31 56.861939 -32.073736 262 35597ft 422kts
10-Dec-20 14:32 56.795166 -32.924656 262 35684ft 421kts
10-Dec-20 14:33 56.722818 -33.770258 261 35696ft 421kts
10-Dec-20 14:34 56.644537 -34.615216 261 35696ft 421kts
10-Dec-20 14:35 56.560807 -35.453991 261 35695ft 422kts
10-Dec-20 14:36 56.470731 -36.295755 260 35695ft 422kts
10-Dec-20 14:37 56.375049 -37.132794 259 35696ft 423kts
10-Dec-20 14:38 56.273934 -37.964042 259 35749ft 424kts
10-Dec-20 14:39 56.167041 -38.792270 258 35819ft 423kts
10-Dec-20 14:40 56.054162 -39.619629 258 35828ft 426kts
10-Dec-20 14:41 55.933264 -40.439238 256 35828ft 426kts
10-Dec-20 14:42 55.802973 -41.257158 255 35829ft 433kts
10-Dec-20 14:43 55.666305 -42.079473 254 35831ft 432kts
10-Dec-20 14:44 55.524528 -42.893389 254 35831ft 433kts
10-Dec-20 14:45 55.376385 -43.707452 252 35830ft 438kts
10-Dec-20 14:46 55.222450 -44.517323 253 35830ft 438kts
10-Dec-20 14:47 55.061943 -45.328144 251 35829ft 444kts
10-Dec-20 14:48 54.893633 -46.143020 248 35828ft 453kts
10-Dec-20 14:49 54.715535 -46.967596 247 35831ft 457kts
10-Dec-20 14:50 54.530315 -47.794515 246 35834ft 461kts
10-Dec-20 14:51 54.339722 -48.613437 246 35833ft 462kts
10-Dec-20 14:52 54.145340 -49.417889 246 35945ft 460kts
10-Dec-20 14:53 53.945203 -50.223962 246 35971ft 460kts
10-Dec-20 14:54 53.747347 -51.025062 245 35977ft 460kts
10-Dec-20 14:55 53.543745 -51.819631 245 35976ft 459kts
10-Dec-20 14:56 53.334966 -52.606049 245 35975ft 459kts
10-Dec-20 14:57 53.121927 -53.381935 244 35976ft 456kts
10-Dec-20 14:58 52.910030 -54.128912 243 35977ft 446kts
10-Dec-20 14:59 52.691901 -54.871530 242 35977ft 446kts
10-Dec-20 15:00 52.469547 -55.607423 242 35976ft 451kts
10-Dec-20 15:01 52.229350 -56.317649 239 35973ft 450kts
10-Dec-20 15:02 51.983934 -57.000638 238 35971ft 450kts
10-Dec-20 15:03 51.732612 -57.677983 237 35962ft 452kts
10-Dec-20 15:04 51.464260 -58.385022 237 35960ft 452kts
10-Dec-20 15:05 51.197675 -59.068764 236 35958ft 453kts
10-Dec-20 15:06 51.043462 -59.455175 236 35958ft 454kts
10-Dec-20 15:07 50.975451 -59.624005 236 35949ft 453kts
10-Dec-20 15:08 50.907806 -59.791217 236 35925ft 452kts
10-Dec-20 15:09 50.839719 -59.957148 235 35914ft 451kts
10-Dec-20 15:10 50.771141 -60.123727 236 35912ft 451kts
10-Dec-20 15:11 50.702450 -60.289825 236 35912ft 451kts
10-Dec-20 15:12 50.633480 -60.455587 236 35912ft 451kts
10-Dec-20 15:13 50.564362 -60.620662 236 35912ft 451kts
10-Dec-20 15:14 50.495876 -60.783626 235 35912ft 451kts
10-Dec-20 15:15 50.426430 -60.947618 235 35912ft 451kts
10-Dec-20 15:16 50.357092 -61.110119 235 35912ft 452kts
10-Dec-20 15:17 50.286259 -61.275150 235 35912ft 453kts
10-Dec-20 15:18 50.215461 -61.439087 235 35912ft 453kts
10-Dec-20 15:19 50.144937 -61.601344 235 35912ft 452kts
10-Dec-20 15:20 50.073910 -61.764106 235 35912ft 452kts
10-Dec-20 15:21 50.002931 -61.925635 234 35912ft 452kts
10-Dec-20 15:22 49.931688 -62.086586 234 35912ft 452kts
10-Dec-20 15:23 49.859817 -62.247288 234 35912ft 452kts
10-Dec-20 15:24 49.787132 -62.408822 234 36691ft 453kts
10-Dec-20 15:25 49.715143 -62.568403 235 37519ft 452kts
10-Dec-20 15:26 49.642946 -62.727811 234 37913ft 452kts
10-Dec-20 15:27 49.570892 -62.886049 234 37924ft 452kts
10-Dec-20 15:28 49.497812 -63.045080 235 37930ft 455kts
10-Dec-20 15:29 49.423981 -63.205054 236 37931ft 458kts
10-Dec-20 15:30 49.349738 -63.364985 236 37931ft 459kts
10-Dec-20 15:31 49.275342 -63.524195 236 37932ft 459kts
10-Dec-20 15:32 49.200588 -63.683277 235 37941ft 459kts
10-Dec-20 15:33 49.126277 -63.840838 235 37960ft 459kts
10-Dec-20 15:34 49.050800 -63.999508 235 37968ft 457kts
10-Dec-20 15:35 48.975537 -64.156769 236 37969ft 456kts
10-Dec-20 15:36 48.900508 -64.312723 236 37969ft 455kts
10-Dec-20 15:37 48.825276 -64.467133 236 37969ft 456kts
10-Dec-20 15:38 48.749099 -64.623317 236 37969ft 456kts
10-Dec-20 15:39 48.673497 -64.778066 235 37969ft 456kts
10-Dec-20 15:40 48.597453 -64.932508 236 37968ft 457kts
10-Dec-20 15:41 48.520894 -65.087072 236 37968ft 460kts
10-Dec-20 15:42 48.444003 -65.241500 236 37969ft 460kts
10-Dec-20 15:43 48.366826 -65.395547 236 37973ft 460kts
10-Dec-20 15:44 48.289639 -65.548725 236 37977ft 460kts
10-Dec-20 15:45 48.212150 -65.701761 236 37978ft 460kts
10-Dec-20 15:46 48.134431 -65.854605 236 37977ft 460kts
10-Dec-20 15:47 48.056352 -66.007003 236 37977ft 460kts
10-Dec-20 15:48 47.978101 -66.158831 236 37977ft 460kts
10-Dec-20 15:49 47.899592 -66.310305 236 37977ft 460kts
10-Dec-20 15:50 47.821944 -66.458359 236 37977ft 460kts
10-Dec-20 15:51 47.743489 -66.607899 236 37977ft 460kts
10-Dec-20 15:52 47.665665 -66.755949 235 37977ft 460kts
10-Dec-20 15:53 47.586407 -66.905729 235 37977ft 460kts
10-Dec-20 15:54 47.508232 -67.052444 235 37982ft 460kts
10-Dec-20 15:56 47.427883 -67.201418 234 38008ft 463kts
10-Dec-20 15:57 47.334202 -67.333059 223 38022ft 472kts
10-Dec-20 15:58 47.222858 -67.439834 217 38023ft 476kts
10-Dec-20 15:59 47.109928 -67.541704 217 38023ft 476kts
10-Dec-20 16:00 46.996721 -67.643358 217 38023ft 476kts
10-Dec-20 16:01 46.883147 -67.745154 218 38021ft 478kts
10-Dec-20 16:02 46.769946 -67.845580 218 38030ft 478kts
10-Dec-20 16:03 46.655305 -67.947010 218 38047ft 479kts
10-Dec-20 16:04 46.541730 -68.046763 220 38060ft 475kts
10-Dec-20 16:05 46.427779 -68.146839 220 38068ft 476kts
10-Dec-20 16:06 46.313914 -68.246147 220 38068ft 475kts
10-Dec-20 16:07 46.199917 -68.345095 219 38066ft 476kts
10-Dec-20 16:08 46.087764 -68.441917 219 38092ft 476kts
10-Dec-20 16:09 45.974358 -68.539368 219 38118ft 475kts
10-Dec-20 16:10 45.859744 -68.637228 219 38124ft 476kts
10-Dec-20 16:11 45.745373 -68.734537 219 38126ft 476kts
10-Dec-20 16:12 45.630873 -68.831593 219 38125ft 476kts
10-Dec-20 16:13 45.516199 -68.928208 219 38125ft 477kts
10-Dec-20 16:13 45.421307 -69.007743 220 38124ft 478kts
10-Dec-20 16:15 45.287550 -69.119466 222 38126ft 478kts
10-Dec-20 16:16 45.172775 -69.215005 222 38126ft 480kts
10-Dec-20 16:16 45.076212 -69.294892 222 38125ft 479kts
10-Dec-20 16:18 44.941913 -69.405450 223 38125ft 480kts
10-Dec-20 16:18 44.845104 -69.484614 223 38125ft 481kts
10-Dec-20 16:19 44.729630 -69.578451 223 38125ft 479kts
10-Dec-20 16:20 44.614051 -69.672434 223 38127ft 480kts
10-Dec-20 16:21 44.497834 -69.766831 222 38132ft 483kts
10-Dec-20 16:22 44.381541 -69.860425 222 38147ft 481kts
10-Dec-20 16:23 44.265622 -69.953317 222 38153ft 482kts
10-Dec-20 16:24 44.149589 -70.045845 222 38156ft 481kts
10-Dec-20 16:25 44.032558 -70.138765 222 38161ft 483kts
10-Dec-20 16:26 43.917082 -70.229989 222 38163ft 482kts
10-Dec-20 16:27 43.801020 -70.320839 222 38167ft 482kts
10-Dec-20 16:28 43.683482 -70.412810 222 38170ft 483kts
10-Dec-20 16:29 43.566242 -70.504277 222 38176ft 484kts
10-Dec-20 16:30 43.453237 -70.601015 231 38185ft 466kts
10-Dec-20 16:31 43.362232 -70.722161 243 38188ft 444kts
10-Dec-20 16:32 43.285447 -70.854243 244 38190ft 442kts
10-Dec-20 16:33 43.208563 -70.985608 244 38187ft 440kts
10-Dec-20 16:34 43.132650 -71.114670 243 38186ft 438kts
10-Dec-20 16:35 43.055709 -71.244922 243 38189ft 437kts
10-Dec-20 16:36 42.978430 -71.375282 243 38191ft 440kts
10-Dec-20 16:37 42.900479 -71.506108 242 38199ft 445kts
10-Dec-20 16:38 42.822142 -71.635923 242 38211ft 446kts
10-Dec-20 16:39 42.743191 -71.767268 241 38212ft 449kts
10-Dec-20 16:40 42.663948 -71.898497 241 38211ft 448kts
10-Dec-20 16:41 42.584298 -72.029767 241 38210ft 447kts
10-Dec-20 16:42 42.504790 -72.160253 241 38215ft 448kts
10-Dec-20 16:43 42.424580 -72.291272 241 38217ft 448kts
10-Dec-20 16:44 42.344900 -72.420876 241 38222ft 449kts
10-Dec-20 16:45 42.264980 -72.550278 241 38227ft 449kts
10-Dec-20 16:46 42.184772 -72.679653 241 38228ft 450kts
10-Dec-20 16:47 42.106267 -72.811526 243 38227ft 447kts
10-Dec-20 16:48 42.029051 -72.943872 242 38228ft 447kts
10-Dec-20 16:49 41.952069 -73.074685 242 38231ft 442kts
10-Dec-20 16:50 41.876166 -73.202848 241 38233ft 440kts
10-Dec-20 16:51 41.798545 -73.332920 241 38234ft 440kts
10-Dec-20 16:52 41.722047 -73.461260 241 38241ft 439kts
10-Dec-20 16:53 41.645332 -73.589553 241 38248ft 439kts
10-Dec-20 16:54 41.569397 -73.716239 240 38253ft 440kts
10-Dec-20 16:55 41.489867 -73.841841 235 37606ft 448kts
10-Dec-20 16:56 41.402096 -73.960224 235 36515ft 440kts
10-Dec-20 16:57 41.317998 -74.073088 235 34937ft 419kts
10-Dec-20 16:58 41.236836 -74.181747 236 33340ft 402kts
10-Dec-20 16:59 41.168413 -74.293150 247 31747ft 373kts
10-Dec-20 17:00 41.114979 -74.408387 248 30161ft 357kts
10-Dec-20 17:01 41.063884 -74.519040 248 28580ft 347kts
10-Dec-20 17:02 41.016173 -74.621535 248 28260ft 302kts
10-Dec-20 17:03 40.972167 -74.716678 247 28263ft 306kts
10-Dec-20 17:04 40.927357 -74.812711 247 28264ft 306kts
10-Dec-20 17:05 40.882935 -74.907336 246 28252ft 305kts
10-Dec-20 17:06 40.838348 -75.001757 245 26907ft 300kts
10-Dec-20 17:07 40.794983 -75.093675 245 25527ft 292kts
10-Dec-20 17:08 40.752327 -75.183817 245 24268ft 282kts
10-Dec-20 17:09 40.710105 -75.272884 245 24262ft 286kts
10-Dec-20 17:10 40.667862 -75.361675 244 24262ft 285kts
10-Dec-20 17:11 40.628186 -75.452072 247 24264ft 284kts
10-Dec-20 17:12 40.589002 -75.542942 247 23436ft 281kts
10-Dec-20 17:13 40.550543 -75.631902 247 22149ft 273kts
10-Dec-20 17:14 40.513429 -75.717717 246 20872ft 268kts
10-Dec-20 17:15 40.476444 -75.802822 246 19565ft 266kts
10-Dec-20 17:16 40.438179 -75.885930 238 18252ft 268kts
10-Dec-20 17:17 40.384990 -75.957087 230 16930ft 272kts
10-Dec-20 17:18 40.331111 -76.025313 230 15622ft 272kts
10-Dec-20 17:19 40.276290 -76.094636 230 14304ft 271kts
10-Dec-20 17:20 40.224869 -76.159329 231 14012ft 236kts
10-Dec-20 17:21 40.176919 -76.219847 231 14020ft 238kts
10-Dec-20 17:22 40.129102 -76.280401 234 14023ft 236kts
10-Dec-20 17:23 40.092745 -76.350562 245 14024ft 230kts
10-Dec-20 17:24 40.059276 -76.423131 245 14023ft 230kts
10-Dec-20 17:25 40.026230 -76.494635 245 14020ft 230kts
10-Dec-20 17:26 39.993247 -76.565758 245 14017ft 229kts
10-Dec-20 17:27 39.960598 -76.636066 245 13592ft 227kts
10-Dec-20 17:28 39.925023 -76.713081 243 13605ft 281kts
10-Dec-20 17:29 39.884053 -76.800202 243 13605ft 280kts
10-Dec-20 17:30 39.843156 -76.887250 242 13606ft 279kts
10-Dec-20 17:31 39.802992 -76.972821 241 12995ft 281kts
10-Dec-20 17:32 39.763009 -77.057752 241 11599ft 280kts
10-Dec-20 17:33 39.722165 -77.144211 241 10170ft 280kts
10-Dec-20 17:34 39.679475 -77.226371 223 10003ft 277kts
10-Dec-20 17:35 39.615064 -77.273843 211 9261ft 261kts
10-Dec-20 17:36 39.551965 -77.318124 211 8238ft 254kts
10-Dec-20 17:37 39.490167 -77.361580 211 7222ft 249kts
10-Dec-20 17:38 39.431542 -77.402687 211 7000ft 235kts
10-Dec-20 17:39 39.375770 -77.441741 211 7005ft 226kts
10-Dec-20 17:40 39.313591 -77.454567 181 6383ft 238kts
10-Dec-20 17:41 39.246359 -77.455220 181 4866ft 238kts
10-Dec-20 17:42 39.185509 -77.456102 181 4401ft 201kts
10-Dec-20 17:43 39.132556 -77.456923 180 3443ft 179kts
10-Dec-20 17:44 39.084270 -77.457615 180 2514ft 165kts
10-Dec-20 17:45 39.040386 -77.458280 180 1685ft 152kts
10-Dec-20 17:46 38.998299 -77.458905 180 883ft 149kts
10-Dec-20 17:47 38.960318 -77.459468 180 303ft 47kts
10-Dec-20 17:48 38.951017 -77.459525 169 303ft 28kts
10-Dec-20 17:49 38.947694 -77.457545 163 303ft 10kts
10-Dec-20 17:50 38.946678 -77.454605 90 303ft 10kts
10-Dec-20 17:51 38.945925 -77.452007 171 303ft 0kts
10-Dec-20 17:52 38.945925 -77.452007 171 303ft 0kts

Navigation Log

Ident Type
Flight plan parsing failed, navigation log unavailable